createdAt,value
2023-02-12T00:01:37.915Z,8.3
2023-02-12T00:16:47.062Z,8.3
2023-02-12T00:31:57.158Z,8.3
2023-02-12T00:47:06.969Z,8.3
2023-02-12T01:02:16.589Z,8.2
2023-02-12T01:17:26.040Z,8.2
2023-02-12T01:32:35.607Z,8.1
2023-02-12T01:47:44.916Z,8
2023-02-12T02:02:54.695Z,7.9
2023-02-12T02:18:06.219Z,7.9
2023-02-12T02:33:15.587Z,7.9
2023-02-12T02:48:24.855Z,7.9
2023-02-12T03:03:34.688Z,7.8
2023-02-12T03:18:44.496Z,7.8
2023-02-12T03:33:53.975Z,7.8
2023-02-12T03:49:03.693Z,7.8
2023-02-12T04:04:13.161Z,7.8
2023-02-12T04:19:22.688Z,7.8
2023-02-12T04:34:32.101Z,7.8
2023-02-12T04:49:41.632Z,7.7
2023-02-12T05:04:51.298Z,7.6
2023-02-12T05:20:00.177Z,7.4
2023-02-12T05:35:09.623Z,7.4
2023-02-12T05:50:18.908Z,7.3
2023-02-12T06:05:28.858Z,7.2
2023-02-12T06:20:38.607Z,7.2
2023-02-12T06:35:48.225Z,7.2
2023-02-12T06:50:58.809Z,7.3
2023-02-12T07:06:08.290Z,7.3
2023-02-12T07:21:18.242Z,7.3
2023-02-12T07:36:27.706Z,7.3
2023-02-12T07:51:37.114Z,7.3
2023-02-12T08:06:46.880Z,7.4
2023-02-12T08:21:57.127Z,7.4
2023-02-12T08:37:06.889Z,7.5
2023-02-12T08:52:16.940Z,7.6
2023-02-12T09:07:27.454Z,7.7
2023-02-12T09:22:37.099Z,7.8
2023-02-12T09:37:47.208Z,7.9
2023-02-12T09:52:57.091Z,8.1
2023-02-12T10:08:07.893Z,8.1
2023-02-12T10:23:24.061Z,8.2
2023-02-12T10:38:33.975Z,8.3
2023-02-12T10:53:43.929Z,8.3
2023-02-12T11:08:53.255Z,8.5
2023-02-12T11:24:04.356Z,8.5
2023-02-12T11:39:14.596Z,8.6
2023-02-12T11:54:24.288Z,8.5
2023-02-12T12:09:33.777Z,8.5
2023-02-12T12:24:43.305Z,8.4
2023-02-12T12:39:52.628Z,8.4
2023-02-12T12:55:03.976Z,8.4
2023-02-12T13:10:13.651Z,8.4
2023-02-12T13:25:23.306Z,8.5
2023-02-12T13:40:33.002Z,8.5
2023-02-12T13:55:42.906Z,8.6
2023-02-12T14:10:52.623Z,8.7
2023-02-12T14:26:02.116Z,8.8
2023-02-12T14:41:11.856Z,8.7
2023-02-12T14:56:21.340Z,8.7
2023-02-12T15:11:31.256Z,8.6
2023-02-12T15:26:41.565Z,8.6
2023-02-12T15:41:51.575Z,8.6
2023-02-12T15:57:01.117Z,8.5
2023-02-12T16:12:10.751Z,8.5
2023-02-12T16:29:42.374Z,9.2
2023-02-12T16:44:53.756Z,8.7
2023-02-12T17:00:02.968Z,8.6
2023-02-12T17:15:12.768Z,8.5
2023-02-12T17:30:22.440Z,8.5
2023-02-12T17:45:31.957Z,8.4
2023-02-12T18:05:08.543Z,9.5
2023-02-12T18:20:20.742Z,8.6
2023-02-12T18:35:30.741Z,8.5
2023-02-12T18:50:41.871Z,8.4
2023-02-12T19:05:51.603Z,8.4
2023-02-12T19:21:01.173Z,8.4
2023-02-12T19:36:10.515Z,8.4
2023-02-12T19:51:20.237Z,8.4
2023-02-12T20:06:30.653Z,8.4
2023-02-12T20:21:40.292Z,8.4
2023-02-12T20:36:49.759Z,8.3
2023-02-12T20:51:59.467Z,8.3
2023-02-12T21:07:09.478Z,8.3
2023-02-12T21:22:18.965Z,8.3
2023-02-12T21:37:28.890Z,8.3
2023-02-12T21:52:38.494Z,8.2
2023-02-12T22:07:47.960Z,8.2
2023-02-12T22:22:57.315Z,8.2
2023-02-12T22:38:07.496Z,8.2
2023-02-12T22:53:17.330Z,8.1
2023-02-12T23:08:26.990Z,8.1
2023-02-12T23:23:36.621Z,8.1
2023-02-12T23:38:46.332Z,8.1
2023-02-12T23:53:55.766Z,8.1
